createdAt,value
2023-09-22T11:41:50.606Z,0.80
2023-09-22T11:44:18.770Z,2.40
2023-09-22T11:46:47.616Z,2.00
2023-09-22T11:49:15.723Z,1.90
2023-09-22T11:51:59.369Z,1.20
2023-09-22T11:54:30.207Z,1.00
2023-09-22T11:56:59.993Z,0.90
2023-09-22T11:59:32.500Z,0.70
2023-09-22T12:02:04.312Z,0.70
2023-09-22T12:04:36.339Z,1.10
2023-09-22T12:07:03.879Z,0.90
2023-09-22T12:09:31.205Z,1.00
2023-09-22T12:11:58.642Z,1.20
2023-09-22T12:14:26.181Z,1.10
2023-09-22T12:16:53.670Z,0.80
2023-09-22T12:19:21.652Z,0.60
2023-09-22T12:21:49.381Z,1.10
2023-09-22T12:24:16.815Z,1.10
2023-09-22T12:26:44.223Z,1.00
2023-09-22T12:29:15.181Z,1.20
2023-09-22T12:31:42.573Z,1.30
2023-09-22T12:34:09.955Z,1.10
2023-09-22T12:36:37.542Z,1.30
2023-09-22T12:39:05.794Z,1.30
2023-09-22T12:41:33.898Z,1.30
2023-09-22T12:44:02.219Z,1.20
2023-09-22T12:46:29.928Z,1.40
2023-09-22T12:48:59.571Z,1.40
2023-09-22T12:51:27.643Z,1.20
2023-09-22T12:53:55.585Z,1.20
2023-09-22T12:56:23.004Z,1.30
2023-09-22T12:58:52.957Z,1.50
2023-09-22T13:01:20.465Z,1.60
2023-09-22T13:03:48.500Z,1.10
2023-09-22T13:06:16.423Z,1.60
2023-09-22T13:08:44.079Z,1.80
2023-09-22T13:11:17.073Z,1.50
2023-09-22T13:13:46.671Z,1.80
2023-09-22T13:16:14.930Z,1.40
2023-09-22T13:18:45.657Z,1.60
2023-09-22T13:21:16.398Z,2.10
2023-09-22T13:23:45.527Z,2.00
2023-09-22T13:26:21.241Z,1.80
2023-09-22T13:28:50.447Z,1.80
2023-09-22T13:31:18.399Z,1.90
2023-09-22T13:33:46.296Z,6.10
2023-09-22T13:36:18.259Z,1.60
2023-09-22T13:38:46.577Z,1.50
2023-09-22T13:41:14.841Z,0.90
2023-09-22T13:43:43.328Z,1.50
2023-09-22T13:46:13.466Z,1.20
2023-09-22T13:48:42.022Z,0.90
2023-09-22T13:51:10.568Z,1.20
2023-09-22T13:53:42.103Z,0.80
2023-09-22T13:56:21.491Z,0.90
2023-09-22T13:58:50.411Z,1.40
2023-09-22T14:01:21.853Z,1.30
2023-09-22T14:03:50.850Z,1.40
2023-09-22T14:06:23.837Z,1.70
2023-09-22T14:08:53.520Z,1.80
2023-09-22T14:11:22.028Z,2.00
2023-09-22T14:13:49.768Z,2.00
2023-09-22T14:16:17.471Z,1.60
2023-09-22T14:18:45.586Z,2.00
2023-09-22T14:21:13.781Z,1.80
2023-09-22T14:23:41.431Z,2.10
2023-09-22T14:26:13.104Z,2.40
2023-09-22T14:28:40.596Z,1.90
2023-09-22T14:31:08.252Z,1.60
2023-09-22T14:33:36.558Z,2.70
2023-09-22T14:36:06.597Z,2.30
2023-09-22T14:38:34.252Z,2.30
2023-09-22T14:41:01.739Z,2.30
2023-09-22T14:43:31.465Z,1.90
2023-09-22T14:45:59.307Z,1.70
2023-09-22T14:48:26.708Z,2.10
2023-09-22T14:51:08.672Z,2.10
2023-09-22T14:53:36.590Z,2.20
2023-09-22T14:56:05.126Z,2.00
2023-09-22T14:58:32.503Z,2.20
2023-09-22T15:01:00.072Z,2.20
2023-09-22T15:03:28.018Z,2.10
2023-09-22T15:05:55.954Z,2.10
2023-09-22T15:08:23.914Z,2.00
2023-09-22T15:10:52.368Z,2.70
2023-09-22T15:13:19.649Z,1.90
2023-09-22T15:15:47.146Z,1.10
2023-09-22T15:18:14.894Z,0.70
2023-09-22T15:20:42.359Z,0.50
2023-09-22T15:23:09.790Z,0.60
2023-09-22T15:25:37.977Z,0.80
2023-09-22T15:28:05.858Z,0.50
2023-09-22T15:30:33.905Z,0.40
2023-09-22T15:33:01.373Z,0.70
2023-09-22T15:35:29.025Z,0.40
2023-09-22T15:37:56.615Z,0.20
2023-09-22T15:40:24.359Z,0.40
2023-09-22T15:42:52.275Z,0.40
2023-09-22T15:45:20.144Z,0.60
2023-09-22T15:47:47.779Z,0.40
2023-09-22T15:50:15.338Z,0.70
2023-09-22T15:52:43.684Z,0.80
2023-09-22T15:55:11.349Z,0.50
2023-09-22T15:57:40.273Z,0.60
2023-09-22T16:00:09.127Z,0.60
2023-09-22T16:02:36.941Z,0.80
2023-09-22T16:05:04.800Z,0.70
2023-09-22T16:07:33.729Z,0.70
2023-09-22T16:10:02.195Z,0.70
2023-09-22T16:12:30.859Z,1.20
2023-09-22T16:14:58.345Z,0.60
2023-09-22T16:17:28.749Z,0.50
2023-09-22T16:19:56.544Z,1.00
2023-09-22T16:22:24.025Z,1.50
2023-09-22T16:24:51.378Z,0.60
2023-09-22T16:27:18.921Z,0.50
2023-09-22T16:29:46.241Z,0.40
2023-09-22T16:32:13.711Z,0.50
2023-09-22T16:34:41.439Z,0.30
2023-09-22T16:37:09.515Z,0.80
2023-09-22T16:39:37.052Z,0.60
2023-09-22T16:42:04.737Z,0.70
2023-09-22T16:44:32.478Z,0.80
2023-09-22T16:46:59.992Z,0.40
2023-09-22T16:49:28.571Z,0.60
2023-09-22T16:51:56.602Z,0.60
2023-09-22T16:54:24.280Z,0.50
2023-09-22T16:56:52.316Z,0.50
2023-09-22T16:59:21.900Z,0.50
2023-09-22T17:01:49.664Z,1.00
2023-09-22T17:04:17.014Z,0.70
2023-09-22T17:06:45.001Z,0.60
2023-09-22T17:09:12.374Z,0.80
2023-09-22T17:11:40.907Z,0.70
2023-09-22T17:14:08.651Z,1.10
2023-09-22T17:16:36.064Z,0.90
2023-09-22T17:19:03.982Z,1.10
2023-09-22T17:21:32.115Z,1.00
2023-09-22T17:23:59.919Z,1.00
2023-09-22T17:26:27.300Z,0.80
2023-09-22T17:28:55.230Z,1.20
2023-09-22T17:31:23.461Z,1.30
2023-09-22T17:33:51.522Z,1.60
2023-09-22T17:36:18.904Z,1.40
2023-09-22T17:38:46.800Z,1.20
2023-09-22T17:41:15.589Z,1.10
2023-09-22T17:43:43.478Z,1.40
2023-09-22T17:46:11.083Z,1.60
2023-09-22T17:48:38.688Z,2.50
2023-09-22T17:51:10.559Z,1.50
2023-09-22T17:53:38.036Z,1.10
2023-09-22T17:56:06.290Z,1.50
2023-09-22T17:58:34.842Z,1.20
2023-09-22T18:01:05.812Z,1.20
2023-09-22T18:03:33.450Z,1.50
2023-09-22T18:06:00.983Z,1.10
2023-09-22T18:08:28.413Z,1.30
2023-09-22T18:10:56.660Z,1.70
2023-09-22T18:13:24.196Z,1.80
2023-09-22T18:15:51.638Z,1.50
2023-09-22T18:18:20.545Z,1.80
2023-09-22T18:20:54.525Z,1.90
2023-09-22T18:23:22.480Z,1.90
2023-09-22T18:25:54.344Z,1.80
2023-09-22T18:28:23.951Z,1.40
2023-09-22T18:30:51.536Z,1.60
2023-09-22T18:33:19.422Z,1.50
2023-09-22T18:35:57.131Z,1.70
2023-09-22T18:38:25.033Z,1.60
2023-09-22T18:40:52.520Z,1.90
2023-09-22T18:43:20.626Z,1.60
2023-09-22T18:45:49.449Z,2.00
2023-09-22T18:48:17.678Z,2.20
2023-09-22T18:50:54.020Z,2.10
2023-09-22T18:53:21.387Z,2.40
2023-09-22T18:55:52.754Z,2.30
2023-09-22T18:58:21.288Z,2.60
2023-09-22T19:00:49.805Z,2.70
2023-09-22T19:03:20.183Z,2.30
2023-09-22T19:05:51.506Z,2.40
2023-09-22T19:08:18.984Z,2.50
2023-09-22T19:10:48.113Z,3.40
2023-09-22T19:13:16.065Z,4.20
2023-09-22T19:15:45.255Z,2.60
2023-09-22T19:18:13.502Z,2.30
2023-09-22T19:20:40.919Z,2.60
2023-09-22T19:23:08.421Z,2.40
2023-09-22T19:25:40.071Z,2.50
2023-09-22T19:28:10.898Z,2.30
2023-09-22T19:30:39.936Z,3.10
2023-09-22T19:33:10.040Z,2.00
2023-09-22T19:35:41.984Z,2.50
2023-09-22T19:38:09.974Z,2.60
2023-09-22T19:40:39.221Z,3.00
2023-09-22T19:43:07.129Z,2.30
2023-09-22T19:45:34.996Z,2.30
2023-09-22T19:48:02.949Z,2.90
2023-09-22T19:50:32.706Z,2.50
2023-09-22T19:53:00.062Z,2.40
2023-09-22T19:55:28.226Z,3.20
2023-09-22T19:57:56.381Z,2.60
2023-09-22T20:00:24.315Z,3.10
2023-09-22T20:02:52.473Z,3.00
2023-09-22T20:05:20.225Z,2.20
2023-09-22T20:07:47.698Z,2.50
2023-09-22T20:10:15.630Z,2.00
2023-09-22T20:12:43.720Z,2.20
2023-09-22T20:15:15.047Z,2.50
2023-09-22T20:17:42.781Z,2.70
2023-09-22T20:20:13.185Z,2.60
2023-09-22T20:22:40.620Z,2.80
2023-09-22T20:25:08.699Z,2.30
2023-09-22T20:27:36.182Z,2.10
2023-09-22T20:30:04.063Z,2.40
2023-09-22T20:32:31.575Z,2.40
2023-09-22T20:34:59.208Z,2.70
2023-09-22T20:37:26.537Z,2.60
2023-09-22T20:39:56.280Z,2.20
2023-09-22T20:42:24.003Z,2.50
2023-09-22T20:44:52.686Z,2.80
2023-09-22T20:47:21.333Z,2.70
2023-09-22T20:49:53.249Z,3.10
2023-09-22T20:52:20.626Z,2.50
2023-09-22T20:54:49.445Z,3.00
2023-09-22T20:57:17.940Z,2.90
2023-09-22T20:59:45.160Z,2.90
2023-09-22T21:02:13.123Z,2.60
2023-09-22T21:04:40.681Z,2.60
2023-09-22T21:07:08.028Z,2.50
2023-09-22T21:09:35.574Z,2.80
2023-09-22T21:12:02.912Z,3.30
2023-09-22T21:14:30.341Z,2.90
2023-09-22T21:16:57.692Z,3.00
2023-09-22T21:19:26.122Z,2.80
2023-09-22T21:21:53.710Z,2.80
2023-09-22T21:24:21.039Z,3.10
2023-09-22T21:26:48.358Z,2.90
2023-09-22T21:29:20.643Z,2.80
2023-09-22T21:31:48.655Z,3.10
2023-09-22T21:34:16.085Z,3.00
2023-09-22T21:36:43.640Z,3.10
2023-09-22T21:39:11.004Z,3.20
2023-09-22T21:41:39.560Z,3.10
2023-09-22T21:44:09.848Z,3.70
2023-09-22T21:46:37.480Z,3.10
2023-09-22T21:49:05.057Z,3.80
2023-09-22T21:51:32.442Z,3.30
2023-09-22T21:53:59.847Z,3.60
2023-09-22T21:56:27.747Z,3.30
2023-09-22T21:58:57.090Z,3.50
2023-09-22T22:01:32.875Z,3.50
2023-09-22T22:04:00.805Z,3.40
2023-09-22T22:06:31.700Z,4.00
2023-09-22T22:09:03.745Z,4.20
2023-09-22T22:11:31.672Z,3.80
2023-09-22T22:14:05.734Z,3.80
2023-09-22T22:16:33.062Z,3.60
2023-09-22T22:19:00.451Z,3.80
2023-09-22T22:21:27.881Z,3.70
2023-09-22T22:23:55.935Z,3.80
2023-09-22T22:26:23.787Z,4.10
2023-09-22T22:28:51.144Z,3.70
2023-09-22T22:31:19.766Z,4.20
2023-09-22T22:33:47.872Z,4.40
2023-09-22T22:36:15.326Z,4.50
2023-09-22T22:38:43.153Z,4.50
2023-09-22T22:41:10.850Z,5.10
2023-09-22T22:43:38.527Z,4.60
2023-09-22T22:46:05.984Z,4.70
2023-09-22T22:48:36.038Z,4.70
2023-09-22T22:51:03.681Z,5.20
2023-09-22T22:53:31.206Z,5.50
2023-09-22T22:56:00.454Z,4.80
2023-09-22T22:58:28.004Z,5.00
2023-09-22T23:01:00.386Z,5.60
2023-09-22T23:03:31.323Z,5.60
2023-09-22T23:05:59.099Z,5.40
2023-09-22T23:08:26.690Z,5.50
2023-09-22T23:11:07.025Z,5.30
2023-09-22T23:13:47.540Z,6.30
2023-09-22T23:16:16.349Z,6.50
2023-09-22T23:18:46.147Z,6.80
2023-09-22T23:21:17.433Z,6.70
2023-09-22T23:23:45.099Z,7.00
2023-09-22T23:26:12.540Z,7.00
2023-09-22T23:28:43.287Z,7.70
2023-09-22T23:31:11.776Z,8.00
2023-09-22T23:33:40.438Z,8.10
2023-09-22T23:36:08.151Z,7.80
2023-09-22T23:38:35.545Z,7.60
2023-09-22T23:41:08.312Z,8.20
2023-09-22T23:43:37.389Z,8.70
2023-09-22T23:46:10.919Z,8.50
2023-09-22T23:48:39.183Z,7.20
2023-09-22T23:51:09.342Z,8.10
2023-09-22T23:53:37.641Z,7.80
2023-09-22T23:56:06.257Z,7.80
2023-09-22T23:58:35.515Z,8.40
